Time;durP1;ratioP1;P1;durP2;ratioP2;P2;SDS_P1;SDS_P2;PMS_P1;PMS_P2;Temp;Humidity;BMP_temperature;BMP_pressure;BME280_temperature;BME280_humidity;BME280_pressure;Samples;Min_cycle;Max_cycle;Signal;HPM_P1;HPM_P2
2022/10/23 00:00:31;;;;;;;14.17;7.30;;;13.20;99.90;;;;;;5132012;28;20422;-85
2022/10/23 00:02:58;;;;;;;10.87;6.00;;;13.20;99.90;;;;;;5133910;28;20539;-84
2022/10/23 00:05:26;;;;;;;11.10;6.80;;;13.20;99.90;;;;;;5123100;28;20489;-85
2022/10/23 00:07:57;;;;;;;12.60;6.47;;;13.10;99.90;;;;;;5123142;28;20477;-85
2022/10/23 00:10:25;;;;;;;8.83;5.70;;;13.10;99.90;;;;;;5126918;28;20441;-85
2022/10/23 00:12:53;;;;;;;13.17;7.27;;;13.10;99.90;;;;;;5127264;28;20442;-84
2022/10/23 00:15:21;;;;;;;7.37;6.67;;;13.00;99.90;;;;;;5125823;28;20492;-85
2022/10/23 00:17:48;;;;;;;8.33;6.60;;;12.90;99.90;;;;;;5122596;28;20437;-85
2022/10/23 00:20:16;;;;;;;8.07;6.43;;;13.00;99.90;;;;;;5121984;28;20638;-84
2022/10/23 00:22:43;;;;;;;8.83;7.00;;;12.90;99.90;;;;;;5138796;28;20501;-84
2022/10/23 00:25:15;;;;;;;9.43;6.80;;;12.90;99.90;;;;;;5137625;28;20573;-85
2022/10/23 00:27:42;;;;;;;10.83;6.47;;;13.00;99.90;;;;;;5128202;28;20493;-84
2022/10/23 00:30:09;;;;;;;12.60;7.80;;;12.90;99.90;;;;;;5127201;28;20895;-85
2022/10/23 00:32:36;;;;;;;10.37;6.97;;;12.90;99.90;;;;;;5127431;28;20441;-87
2022/10/23 00:35:03;;;;;;;8.37;6.87;;;12.90;99.90;;;;;;5125332;28;20538;-84
2022/10/23 00:37:31;;;;;;;11.33;9.33;;;12.90;99.90;;;;;;5123547;28;20541;-84
2022/10/23 00:39:57;;;;;;;10.23;6.83;;;12.90;99.90;;;;;;5123637;28;20830;-85
2022/10/23 00:42:26;;;;;;;7.67;6.87;;;12.90;99.90;;;;;;5123915;28;20468;-85
2022/10/23 00:45:21;;;;;;;10.53;6.67;;;12.90;99.90;;;;;;5122694;28;20449;-85
2022/10/23 00:47:49;;;;;;;12.07;6.80;;;12.90;99.90;;;;;;5081390;28;20466;-85
2022/10/23 00:50:16;;;;;;;9.50;7.20;;;12.80;99.90;;;;;;5124894;28;20443;-85
2022/10/23 00:52:46;;;;;;;12.30;5.97;;;12.70;99.90;;;;;;5123833;28;20453;-86
2022/10/23 00:55:14;;;;;;;12.40;7.70;;;12.70;99.90;;;;;;5123041;28;20465;-85
2022/10/23 00:57:44;;;;;;;14.70;7.37;;;12.60;99.90;;;;;;5122386;28;20438;-84
2022/10/23 01:00:16;;;;;;;11.60;6.50;;;12.60;99.90;;;;;;5125704;28;20437;-84
2022/10/23 01:02:43;;;;;;;8.53;7.40;;;12.50;99.90;;;;;;5127062;28;20438;-83
2022/10/23 01:05:10;;;;;;;7.87;6.53;;;12.50;99.90;;;;;;5128016;28;20488;-84
2022/10/23 01:07:47;;;;;;;11.73;7.60;;;12.50;99.90;;;;;;5126943;28;20485;-84
2022/10/23 01:10:19;;;;;;;11.30;6.80;;;12.50;99.90;;;;;;5138823;28;20457;-84
2022/10/23 01:12:55;;;;;;;11.83;7.40;;;12.50;99.90;;;;;;5125613;28;20445;-84
2022/10/23 01:15:27;;;;;;;12.23;7.50;;;12.50;99.90;;;;;;5123486;28;20446;-84
2022/10/23 01:17:59;;;;;;;13.50;7.53;;;12.60;99.90;;;;;;5134790;28;20481;-83
2022/10/23 01:20:35;;;;;;;8.87;6.60;;;12.50;99.90;;;;;;5129762;28;20452;-86
2022/10/23 01:23:14;;;;;;;8.87;7.03;;;12.50;99.90;;;;;;5124068;28;20444;-84
2022/10/23 01:25:58;;;;;;;9.30;7.97;;;12.40;99.90;;;;;;5131669;28;20474;-83
2022/10/23 01:28:30;;;;;;;15.37;7.63;;;12.40;99.90;;;;;;5130928;28;20488;-83
2022/10/23 01:30:59;;;;;;;9.90;7.37;;;12.40;99.90;;;;;;5127148;28;20525;-83
2022/10/23 01:33:29;;;;;;;10.60;7.33;;;12.40;99.90;;;;;;5124000;28;20441;-85
2022/10/23 01:36:02;;;;;;;8.70;6.60;;;12.50;99.90;;;;;;5122407;28;20476;-85
2022/10/23 01:38:35;;;;;;;7.67;6.10;;;12.40;99.90;;;;;;5122795;28;20455;-85
2022/10/23 01:41:07;;;;;;;15.50;8.53;;;12.40;99.90;;;;;;5122423;28;20446;-85
2022/10/23 01:43:42;;;;;;;9.97;6.50;;;12.40;99.90;;;;;;5121857;28;20943;-85
2022/10/23 01:46:13;;;;;;;10.27;7.87;;;12.40;99.90;;;;;;5121259;28;20461;-85
2022/10/23 01:48:42;;;;;;;10.70;7.10;;;12.40;99.90;;;;;;5121166;28;20485;-85
2022/10/23 01:51:13;;;;;;;9.07;8.20;;;12.30;99.90;;;;;;5120578;28;20444;-85
2022/10/23 01:53:41;;;;;;;8.60;7.10;;;12.30;99.90;;;;;;5120889;28;20457;-85
2022/10/23 01:56:12;;;;;;;12.33;7.70;;;12.30;99.90;;;;;;5128817;28;20473;-84
2022/10/23 01:58:45;;;;;;;8.40;6.40;;;12.30;99.90;;;;;;5126867;28;20446;-86
2022/10/23 02:01:13;;;;;;;9.87;7.93;;;12.30;99.90;;;;;;5128357;28;20442;-85
2022/10/23 02:03:43;;;;;;;13.37;7.07;;;12.30;99.90;;;;;;5127840;28;20430;-85
2022/10/23 02:06:09;;;;;;;8.23;6.80;;;12.20;99.90;;;;;;5132666;28;20462;-85
2022/10/23 02:08:36;;;;;;;8.03;7.23;;;12.20;99.90;;;;;;5123019;28;20856;-84
2022/10/23 02:11:08;;;;;;;10.97;7.20;;;12.20;99.90;;;;;;5123875;28;20445;-85
2022/10/23 02:13:43;;;;;;;7.80;6.30;;;12.30;99.90;;;;;;5124196;28;20453;-85
2022/10/23 02:16:19;;;;;;;7.50;6.67;;;12.20;99.90;;;;;;5121762;28;20465;-84
2022/10/23 02:18:54;;;;;;;7.83;7.03;;;12.20;99.90;;;;;;5101456;22;20510;-86
2022/10/23 02:21:27;;;;;;;9.80;7.23;;;12.30;99.90;;;;;;5072752;28;20443;-84
2022/10/23 02:23:59;;;;;;;10.87;7.20;;;12.30;99.90;;;;;;5079832;28;20440;-84
2022/10/23 02:26:31;;;;;;;11.80;6.87;;;12.30;99.90;;;;;;5089036;28;20440;-84
2022/10/23 02:29:06;;;;;;;8.97;6.73;;;12.30;99.90;;;;;;5077261;28;20479;-86
2022/10/23 02:31:33;;;;;;;10.90;6.67;;;12.30;99.90;;;;;;5085787;28;20455;-86
2022/10/23 02:34:00;;;;;;;7.40;6.53;;;12.40;99.90;;;;;;5072349;28;20928;-86
2022/10/23 02:36:27;;;;;;;10.27;7.00;;;12.40;99.90;;;;;;5096102;28;20454;-84
2022/10/23 02:38:53;;;;;;;7.20;6.50;;;12.40;99.90;;;;;;5079608;28;20873;-84
2022/10/23 02:41:30;;;;;;;11.17;6.53;;;12.40;99.90;;;;;;5071667;28;20455;-84
2022/10/23 02:44:10;;;;;;;8.30;6.37;;;12.40;99.90;;;;;;5072047;28;20837;-84
2022/10/23 02:46:49;;;;;;;7.87;5.80;;;12.40;99.90;;;;;;5072820;28;20443;-84
2022/10/23 02:49:24;;;;;;;12.00;6.70;;;12.40;99.90;;;;;;5074426;28;20482;-84
2022/10/23 02:52:01;;;;;;;10.83;6.23;;;12.40;99.90;;;;;;5094236;28;20431;-84
2022/10/23 02:54:42;;;;;;;7.50;6.07;;;12.40;99.90;;;;;;5079430;28;20436;-86
2022/10/23 02:57:19;;;;;;;16.63;6.03;;;12.40;99.90;;;;;;5072400;28;20472;-84
2022/10/23 02:59:52;;;;;;;8.93;6.07;;;12.40;99.90;;;;;;5071822;28;20443;-84
2022/10/23 03:02:23;;;;;;;13.00;6.57;;;12.40;99.90;;;;;;5072251;28;20842;-84
2022/10/23 03:04:52;;;;;;;8.83;6.20;;;12.40;99.90;;;;;;5071121;28;20447;-84
2022/10/23 03:07:19;;;;;;;8.00;6.43;;;12.40;99.90;;;;;;5071279;28;20471;-84
2022/10/23 03:09:46;;;;;;;9.47;6.90;;;12.40;99.90;;;;;;5070985;28;20490;-85
2022/10/23 03:12:13;;;;;;;9.50;6.00;;;12.40;99.90;;;;;;5072077;28;20940;-84
2022/10/23 03:14:40;;;;;;;9.33;6.70;;;12.40;99.90;;;;;;5074846;28;20451;-84
2022/10/23 03:17:08;;;;;;;11.10;6.37;;;12.40;99.90;;;;;;5074067;28;20463;-84
2022/10/23 03:19:34;;;;;;;14.40;7.17;;;12.30;99.90;;;;;;5074583;28;20447;-84
2022/10/23 03:22:01;;;;;;;12.33;6.60;;;12.30;99.90;;;;;;5074498;28;20836;-84
2022/10/23 03:24:28;;;;;;;8.70;6.23;;;12.30;99.90;;;;;;5074360;28;20966;-84
2022/10/23 03:26:55;;;;;;;7.67;6.97;;;12.20;99.90;;;;;;5074589;28;20454;-84
2022/10/23 03:29:22;;;;;;;13.23;5.77;;;12.20;99.90;;;;;;5084684;28;20475;-84
2022/10/23 03:31:48;;;;;;;9.80;5.83;;;12.20;99.90;;;;;;5096939;28;20451;-84
2022/10/23 03:34:18;;;;;;;10.30;6.17;;;12.10;99.90;;;;;;5094437;28;20448;-84
2022/10/23 03:36:44;;;;;;;8.10;7.00;;;12.20;99.90;;;;;;5094112;28;20588;-84
2022/10/23 03:39:11;;;;;;;11.90;7.00;;;12.10;99.90;;;;;;5091965;28;20423;-84
2022/10/23 03:41:38;;;;;;;9.10;6.50;;;12.00;99.90;;;;;;5096789;28;20441;-84
2022/10/23 03:44:05;;;;;;;8.13;6.57;;;12.10;99.90;;;;;;5075301;28;20447;-86
2022/10/23 03:46:31;;;;;;;10.40;7.03;;;12.10;99.90;;;;;;5074311;28;20834;-85
2022/10/23 03:48:58;;;;;;;8.50;6.73;;;12.10;99.90;;;;;;5073735;28;20487;-85
2022/10/23 03:51:26;;;;;;;8.43;6.70;;;12.10;99.90;;;;;;5074633;28;20454;-86
2022/10/23 03:53:53;;;;;;;13.47;7.37;;;12.20;99.90;;;;;;5075680;28;20682;-86
2022/10/23 03:56:20;;;;;;;11.07;6.57;;;12.20;99.90;;;;;;5074398;28;20447;-86
2022/10/23 03:58:47;;;;;;;6.90;5.53;;;12.20;99.90;;;;;;5073786;28;20471;-86
2022/10/23 04:01:14;;;;;;;10.23;6.23;;;12.20;99.90;;;;;;5074137;28;20435;-86
2022/10/23 04:03:40;;;;;;;13.23;8.60;;;12.20;99.90;;;;;;5073641;28;20459;-86
2022/10/23 04:06:07;;;;;;;9.23;5.50;;;12.20;99.90;;;;;;5073802;28;20448;-86
2022/10/23 04:08:36;;;;;;;9.40;6.53;;;12.30;99.90;;;;;;5073353;28;20479;-85
2022/10/23 04:11:02;;;;;;;7.10;6.10;;;12.30;99.90;;;;;;5074883;28;20447;-86
2022/10/23 04:13:29;;;;;;;16.43;6.03;;;12.30;99.90;;;;;;5086486;28;20439;-86
2022/10/23 04:15:56;;;;;;;10.77;6.43;;;12.20;99.90;;;;;;5080949;28;20749;-86
2022/10/23 04:18:22;;;;;;;8.03;5.97;;;12.20;99.90;;;;;;5073805;28;20491;-85
2022/10/23 04:20:49;;;;;;;10.77;6.60;;;12.20;99.90;;;;;;5081425;28;20448;-86
2022/10/23 04:23:17;;;;;;;15.43;6.73;;;12.20;99.90;;;;;;5077931;28;20436;-86
2022/10/23 04:25:45;;;;;;;9.27;5.63;;;12.10;99.90;;;;;;5073932;28;20444;-85
2022/10/23 04:28:12;;;;;;;8.63;6.23;;;12.10;99.90;;;;;;5074106;28;20472;-85
2022/10/23 04:30:40;;;;;;;7.17;5.90;;;12.10;99.90;;;;;;5073395;28;20863;-85
2022/10/23 04:33:07;;;;;;;9.57;5.80;;;12.10;99.90;;;;;;5073198;28;20458;-85
2022/10/23 04:35:34;;;;;;;7.80;6.20;;;12.00;99.90;;;;;;5083310;28;20448;-85
2022/10/23 04:38:00;;;;;;;8.33;5.93;;;12.00;99.90;;;;;;5098286;28;20468;-85
2022/10/23 04:40:27;;;;;;;10.20;6.70;;;12.00;99.90;;;;;;5093706;28;20435;-86
2022/10/23 04:42:55;;;;;;;10.20;6.27;;;12.10;99.90;;;;;;5087804;28;20454;-86
2022/10/23 04:45:22;;;;;;;13.87;5.30;;;12.20;99.90;;;;;;5095421;28;20431;-85
2022/10/23 04:47:48;;;;;;;8.47;5.63;;;12.10;99.90;;;;;;5094544;28;20467;-85
2022/10/23 04:50:16;;;;;;;8.70;5.57;;;12.20;99.90;;;;;;5075433;28;20479;-86
2022/10/23 04:52:42;;;;;;;7.47;5.63;;;12.20;99.90;;;;;;5073786;28;20861;-85
2022/10/23 04:55:10;;;;;;;9.13;6.27;;;12.20;99.90;;;;;;5073053;28;20448;-86
2022/10/23 04:57:36;;;;;;;9.60;5.70;;;12.20;99.90;;;;;;5072726;28;20475;-86
2022/10/23 05:00:08;;;;;;;5.90;5.17;;;12.20;99.90;;;;;;5072955;28;20443;-85
2022/10/23 05:02:34;;;;;;;8.70;6.30;;;12.20;99.90;;;;;;5072830;28;20459;-85
2022/10/23 05:05:01;;;;;;;8.07;5.70;;;12.20;99.90;;;;;;5072971;28;20530;-85
2022/10/23 05:07:28;;;;;;;7.60;5.87;;;12.30;99.90;;;;;;5072437;28;20463;-85
2022/10/23 05:09:55;;;;;;;9.13;6.23;;;12.30;99.90;;;;;;5072404;28;20883;-85
2022/10/23 05:12:24;;;;;;;8.00;6.13;;;12.40;99.90;;;;;;5073511;28;20444;-86
2022/10/23 05:14:51;;;;;;;9.70;6.17;;;12.30;99.90;;;;;;5073880;28;20456;-85
2022/10/23 05:17:23;;;;;;;8.50;5.43;;;12.30;99.90;;;;;;5087247;28;20468;-85
2022/10/23 05:19:53;;;;;;;9.97;7.27;;;12.40;99.90;;;;;;5097497;28;20451;-85
2022/10/23 05:22:21;;;;;;;8.37;5.67;;;12.30;99.90;;;;;;5091664;28;20656;-85
2022/10/23 05:24:48;;;;;;;8.03;5.33;;;12.30;99.90;;;;;;5082113;28;20448;-85
2022/10/23 05:27:15;;;;;;;10.60;4.80;;;12.40;99.90;;;;;;5094071;28;20462;-85
2022/10/23 05:29:41;;;;;;;15.73;6.33;;;12.40;99.90;;;;;;5088092;28;20507;-85
2022/10/23 05:32:12;;;;;;;7.60;6.43;;;12.40;99.90;;;;;;5072808;28;20448;-86
2022/10/23 05:34:41;;;;;;;13.90;6.80;;;12.40;99.90;;;;;;5072785;28;20455;-86
2022/10/23 05:37:10;;;;;;;7.43;5.90;;;12.40;99.90;;;;;;5079516;28;20462;-86
2022/10/23 05:39:37;;;;;;;6.83;5.90;;;12.40;99.90;;;;;;5096159;28;20444;-85
2022/10/23 05:42:04;;;;;;;7.93;6.20;;;12.30;99.90;;;;;;5075503;28;20451;-86
2022/10/23 05:44:31;;;;;;;8.17;5.43;;;12.30;99.90;;;;;;5072512;28;20448;-86
2022/10/23 05:46:57;;;;;;;5.80;4.93;;;12.30;99.90;;;;;;5072271;28;21123;-86
2022/10/23 05:49:24;;;;;;;10.03;5.33;;;12.30;99.90;;;;;;5079874;28;20470;-85
2022/10/23 05:51:53;;;;;;;8.43;5.53;;;12.30;99.90;;;;;;5097545;28;20446;-85
2022/10/23 05:54:19;;;;;;;6.33;5.73;;;12.20;99.90;;;;;;5076570;28;20448;-86
2022/10/23 05:56:46;;;;;;;12.70;6.50;;;12.20;99.90;;;;;;5072184;28;20450;-86
2022/10/23 05:59:13;;;;;;;10.40;6.23;;;12.20;99.90;;;;;;5072227;28;20451;-85
2022/10/23 06:01:39;;;;;;;12.17;7.13;;;12.10;99.90;;;;;;5080121;28;20427;-86
2022/10/23 06:04:06;;;;;;;10.37;5.37;;;12.10;99.90;;;;;;5097397;28;20478;-85
2022/10/23 06:06:33;;;;;;;7.47;6.00;;;12.10;99.90;;;;;;5087592;28;20534;-86
2022/10/23 06:09:01;;;;;;;8.83;6.53;;;12.10;99.90;;;;;;5071957;28;20500;-85
2022/10/23 06:11:28;;;;;;;8.13;5.60;;;12.10;99.90;;;;;;5083971;28;20440;-85
2022/10/23 06:13:54;;;;;;;5.33;4.90;;;12.10;99.90;;;;;;5094094;28;20420;-86
2022/10/23 06:16:23;;;;;;;5.70;5.20;;;12.20;99.90;;;;;;5072731;28;20440;-85
2022/10/23 06:18:50;;;;;;;9.47;5.10;;;12.30;99.90;;;;;;5071754;28;21006;-85
2022/10/23 06:21:17;;;;;;;7.00;5.60;;;12.30;99.90;;;;;;5072458;28;20443;-86
2022/10/23 06:23:44;;;;;;;7.20;6.00;;;12.30;99.90;;;;;;5072067;28;20820;-85
2022/10/23 06:26:15;;;;;;;16.70;5.90;;;12.40;99.90;;;;;;5071966;28;20455;-85
2022/10/23 06:28:42;;;;;;;7.07;5.77;;;12.40;99.90;;;;;;5071691;28;20463;-85
2022/10/23 06:31:10;;;;;;;7.70;4.97;;;12.40;99.90;;;;;;5095117;28;20479;-86
2022/10/23 06:33:37;;;;;;;7.17;5.57;;;12.40;99.90;;;;;;5083848;28;20436;-86
2022/10/23 06:36:05;;;;;;;6.80;5.13;;;12.40;99.90;;;;;;5074798;28;20439;-86
2022/10/23 06:38:35;;;;;;;8.87;5.57;;;12.50;99.90;;;;;;5071391;28;20472;-86
2022/10/23 06:41:02;;;;;;;8.83;6.07;;;12.60;99.90;;;;;;5071580;28;20436;-85
2022/10/23 06:43:30;;;;;;;9.13;7.10;;;12.70;99.90;;;;;;5071693;28;20450;-86
2022/10/23 06:46:00;;;;;;;11.50;6.20;;;12.70;99.90;;;;;;5071354;28;20451;-86
2022/10/23 06:48:26;;;;;;;7.70;6.17;;;12.80;99.90;;;;;;5074093;28;20976;-85
2022/10/23 06:50:54;;;;;;;7.40;4.77;;;12.90;99.90;;;;;;5075072;28;20483;-86
2022/10/23 06:53:22;;;;;;;7.00;5.20;;;12.90;99.90;;;;;;5075196;28;20550;-86
2022/10/23 06:55:49;;;;;;;8.90;6.13;;;13.00;99.90;;;;;;5075263;28;20821;-85
2022/10/23 06:58:15;;;;;;;7.67;5.03;;;13.00;99.90;;;;;;5081282;28;20452;-85
2022/10/23 07:00:44;;;;;;;8.60;6.30;;;13.20;99.90;;;;;;5085277;28;20443;-85
2022/10/23 07:03:11;;;;;;;13.23;5.63;;;13.20;99.90;;;;;;5075755;28;20498;-85
2022/10/23 07:05:37;;;;;;;9.20;5.77;;;13.30;99.90;;;;;;5075438;28;20444;-86
2022/10/23 07:08:05;;;;;;;7.37;5.07;;;13.30;99.90;;;;;;5074788;28;20475;-86
2022/10/23 07:10:31;;;;;;;7.57;5.67;;;13.30;99.90;;;;;;5076031;28;20479;-85
2022/10/23 07:12:59;;;;;;;10.27;5.83;;;13.50;99.90;;;;;;5076018;28;20775;-85
2022/10/23 07:15:26;;;;;;;6.60;5.90;;;13.50;99.90;;;;;;5076686;28;20581;-85
2022/10/23 07:17:55;;;;;;;17.73;6.60;;;13.50;99.90;;;;;;5091189;28;20475;-85
2022/10/23 07:20:22;;;;;;;5.80;5.17;;;13.60;99.90;;;;;;5094003;28;20454;-86
2022/10/23 07:22:51;;;;;;;6.73;5.40;;;13.60;99.90;;;;;;5078091;28;20443;-86
2022/10/23 07:25:18;;;;;;;9.50;5.60;;;13.50;99.90;;;;;;5078007;28;20485;-85
2022/10/23 07:27:45;;;;;;;8.83;6.20;;;13.60;99.90;;;;;;5085980;28;20464;-87
2022/10/23 07:30:13;;;;;;;8.23;6.20;;;13.50;99.90;;;;;;5077721;28;20479;-86
2022/10/23 07:32:40;;;;;;;15.13;6.37;;;13.60;99.90;;;;;;5078087;28;20448;-86
2022/10/23 07:35:10;;;;;;;6.63;4.07;;;13.70;99.90;;;;;;5076147;28;20463;-86
2022/10/23 07:37:37;;;;;;;7.00;4.40;;;13.80;99.90;;;;;;5075118;28;20474;-86
2022/10/23 07:40:04;;;;;;;6.80;4.27;;;13.90;99.90;;;;;;5074866;28;20444;-85
2022/10/23 07:42:30;;;;;;;5.33;4.80;;;14.00;99.90;;;;;;5074875;28;20448;-85
2022/10/23 07:44:57;;;;;;;4.50;4.10;;;14.10;99.90;;;;;;5074633;28;20475;-86
2022/10/23 07:47:24;;;;;;;10.43;4.97;;;14.30;99.90;;;;;;5074568;28;20468;-86
2022/10/23 07:49:51;;;;;;;5.03;4.53;;;14.40;99.90;;;;;;5075191;28;20855;-86
2022/10/23 07:52:19;;;;;;;4.80;4.20;;;14.60;99.90;;;;;;5077752;28;20503;-87
2022/10/23 07:54:46;;;;;;;7.23;5.27;;;14.60;99.90;;;;;;5076469;28;20444;-86
2022/10/23 07:57:12;;;;;;;4.63;4.23;;;14.70;99.90;;;;;;5073949;28;20466;-85
2022/10/23 07:59:39;;;;;;;4.70;4.30;;;14.90;99.90;;;;;;5074159;28;20448;-86
2022/10/23 08:02:10;;;;;;;7.83;4.67;;;14.90;99.90;;;;;;5074704;28;20818;-86
2022/10/23 08:04:37;;;;;;;6.80;4.40;;;15.20;99.90;;;;;;5074073;28;20443;-86
2022/10/23 08:07:04;;;;;;;5.87;3.57;;;15.60;99.90;;;;;;5086813;28;20453;-86
2022/10/23 08:09:33;;;;;;;5.37;3.80;;;16.50;99.90;;;;;;5077686;28;20543;-86
2022/10/23 08:12:00;;;;;;;6.30;3.70;;;17.30;99.90;;;;;;5073747;28;20501;-86
2022/10/23 08:14:27;;;;;;;7.50;3.93;;;18.00;99.90;;;;;;5074031;28;20465;-86
2022/10/23 08:16:53;;;;;;;4.83;4.40;;;18.60;99.90;;;;;;5074744;28;20974;-86
2022/10/23 08:19:20;;;;;;;4.83;3.47;;;18.80;99.90;;;;;;5074775;28;20455;-86
2022/10/23 08:21:47;;;;;;;4.63;4.13;;;19.40;99.90;;;;;;5075876;28;20436;-86
2022/10/23 08:24:14;;;;;;;4.17;3.77;;;19.90;99.90;;;;;;5099181;28;20420;-86
2022/10/23 08:26:42;;;;;;;6.10;4.47;;;19.60;99.90;;;;;;5098443;28;20420;-85
2022/10/23 08:29:08;;;;;;;4.90;3.90;;;19.40;99.90;;;;;;5082356;28;20444;-86
2022/10/23 08:31:35;;;;;;;6.20;4.30;;;19.10;99.90;;;;;;5075203;28;21011;-86
2022/10/23 08:34:02;;;;;;;7.97;4.10;;;19.00;99.90;;;;;;5080840;28;20448;-87
2022/10/23 08:36:29;;;;;;;7.23;4.50;;;18.70;99.90;;;;;;5076010;28;20458;-87
2022/10/23 08:38:57;;;;;;;4.73;3.77;;;18.80;99.90;;;;;;5074627;28;20517;-86
2022/10/23 08:41:28;;;;;;;5.13;4.60;;;18.60;99.90;;;;;;5081471;28;20797;-86
2022/10/23 08:44:02;;;;;;;5.23;3.87;;;18.70;99.90;;;;;;5078944;28;20447;-86
2022/10/23 08:46:34;;;;;;;5.70;3.63;;;18.60;99.90;;;;;;5076296;28;20473;-85
2022/10/23 08:49:16;;;;;;;6.60;3.90;;;18.40;99.90;;;;;;5073426;28;20460;-86
2022/10/23 08:51:47;;;;;;;6.40;4.30;;;18.50;99.90;;;;;;5073441;28;20478;-85
2022/10/23 08:54:16;;;;;;;5.63;4.20;;;18.60;99.90;;;;;;5073276;28;20451;-85
2022/10/23 08:56:48;;;;;;;5.43;4.30;;;18.90;99.90;;;;;;5073090;28;20455;-86
2022/10/23 08:59:24;;;;;;;19.80;4.60;;;18.70;99.90;;;;;;5073529;28;20444;-85
2022/10/23 09:01:55;;;;;;;6.43;4.67;;;18.70;99.90;;;;;;5073483;28;20439;-86
2022/10/23 09:04:22;;;;;;;4.70;4.20;;;18.50;99.90;;;;;;5073250;28;20442;-86
2022/10/23 09:07:07;;;;;;;6.20;4.80;;;18.40;99.90;;;;;;5078488;28;20452;-86
2022/10/23 09:09:47;;;;;;;10.47;4.97;;;18.70;99.90;;;;;;5075198;28;20450;-86
2022/10/23 09:12:16;;;;;;;6.57;4.50;;;18.90;99.90;;;;;;5073541;28;20428;-86
2022/10/23 09:15:04;;;;;;;4.53;4.13;;;18.80;99.90;;;;;;5090463;28;20448;-86
2022/10/23 09:17:32;;;;;;;4.50;3.83;;;18.50;99.90;;;;;;5073141;28;20471;-86
2022/10/23 09:20:13;;;;;;;4.87;3.80;;;19.00;99.90;;;;;;5073247;28;20443;-86
2022/10/23 09:22:40;;;;;;;4.70;3.57;;;19.50;99.90;;;;;;5097420;28;20438;-86
2022/10/23 09:25:10;;;;;;;5.77;3.53;;;19.90;99.90;;;;;;5096898;28;20491;-86
2022/10/23 09:27:37;;;;;;;5.33;3.30;;;20.30;99.90;;;;;;5074126;28;20463;-86
2022/10/23 09:30:07;;;;;;;3.63;2.60;;;20.60;99.90;;;;;;5073299;28;20448;-86
2022/10/23 09:32:36;;;;;;;7.00;2.40;;;20.70;99.90;;;;;;5090237;28;20428;-86
2022/10/23 09:35:04;;;;;;;5.13;2.87;;;21.20;99.70;;;;;;5083502;28;20451;-86
2022/10/23 09:37:34;;;;;;;3.67;2.33;;;21.60;98.90;;;;;;5072881;28;20478;-86
2022/10/23 09:40:17;;;;;;;5.33;2.83;;;21.20;99.30;;;;;;5073132;28;20534;-86
2022/10/23 09:42:52;;;;;;;4.30;2.60;;;21.60;98.90;;;;;;5073930;28;20428;-86
2022/10/23 09:45:26;;;;;;;4.93;3.37;;;22.40;97.80;;;;;;5075424;28;20448;-86
2022/10/23 09:48:13;;;;;;;3.70;2.37;;;22.20;98.00;;;;;;5075745;28;20474;-87
2022/10/23 09:50:48;;;;;;;2.90;2.20;;;22.30;97.50;;;;;;5075702;28;20479;-86
2022/10/23 09:53:25;;;;;;;4.50;2.50;;;22.30;97.30;;;;;;5076373;28;20470;-86
2022/10/23 09:55:53;;;;;;;3.77;2.70;;;21.80;96.90;;;;;;5076467;28;20439;-86
2022/10/23 09:58:23;;;;;;;4.00;2.23;;;21.60;97.70;;;;;;5073223;28;20459;-88
2022/10/23 10:00:51;;;;;;;7.27;2.77;;;21.40;98.00;;;;;;5073758;28;20440;-86
2022/10/23 10:03:20;;;;;;;2.47;2.20;;;21.60;98.10;;;;;;5073486;28;20458;-86
2022/10/23 10:05:56;;;;;;;2.30;1.80;;;23.00;96.80;;;;;;5074544;28;20439;-86
2022/10/23 10:08:32;;;;;;;3.03;2.57;;;25.20;94.50;;;;;;5076467;28;20471;-87
2022/10/23 10:11:02;;;;;;;2.53;2.33;;;26.70;90.70;;;;;;5084047;28;20488;-87
2022/10/23 10:13:54;;;;;;;2.27;2.07;;;26.90;86.60;;;;;;5086019;28;20449;-87
2022/10/23 10:16:32;;;;;;;2.90;2.10;;;26.50;86.70;;;;;;5092110;28;20442;-86
2022/10/23 10:19:05;;;;;;;4.83;2.77;;;25.60;88.20;;;;;;5096129;28;20469;-86
2022/10/23 10:21:38;;;;;;;3.57;1.93;;;25.50;89.20;;;;;;5098709;28;20459;-86
2022/10/23 10:24:08;;;;;;;3.37;2.20;;;25.50;89.00;;;;;;5099468;28;20441;-86
2022/10/23 10:26:44;;;;;;;1.70;1.60;;;26.10;87.90;;;;;;5093131;28;20440;-86
2022/10/23 10:29:22;;;;;;;2.50;1.50;;;26.40;87.10;;;;;;5083193;28;20446;-86
2022/10/23 10:32:05;;;;;;;1.93;1.60;;;26.60;85.70;;;;;;5077912;28;21015;-86
2022/10/23 10:34:41;;;;;;;3.70;1.60;;;27.00;84.10;;;;;;5081033;28;20436;-86
2022/10/23 10:37:26;;;;;;;2.70;1.93;;;27.80;82.60;;;;;;5079026;28;20940;-86
2022/10/23 10:40:00;;;;;;;5.70;2.03;;;29.30;78.60;;;;;;5078981;28;20522;-86
2022/10/23 10:42:46;;;;;;;2.50;2.00;;;30.60;73.80;;;;;;5077491;28;20443;-86
2022/10/23 10:45:19;;;;;;;3.80;1.73;;;30.20;69.90;;;;;;5077543;28;20458;-86
2022/10/23 10:48:02;;;;;;;2.17;1.53;;;30.90;70.00;;;;;;5077753;28;20472;-86
2022/10/23 10:50:37;;;;;;;3.40;1.83;;;29.90;64.80;;;;;;5075959;28;20451;-86
2022/10/23 10:53:12;;;;;;;2.07;1.87;;;29.20;66.80;;;;;;5076388;28;20473;-86
2022/10/23 10:55:41;;;;;;;3.73;2.43;;;28.90;69.80;;;;;;5076153;28;20455;-86
2022/10/23 10:58:15;;;;;;;2.20;1.83;;;28.20;70.40;;;;;;5075935;28;20477;-86
2022/10/23 11:00:44;;;;;;;2.60;1.43;;;27.20;72.40;;;;;;5075781;28;20431;-86
2022/10/23 11:03:23;;;;;;;2.27;1.50;;;26.40;75.90;;;;;;5077059;28;20445;-86
2022/10/23 11:05:51;;;;;;;4.23;1.80;;;25.70;77.00;;;;;;5075898;28;20450;-86
2022/10/23 11:08:21;;;;;;;2.93;2.20;;;25.40;79.40;;;;;;5075938;28;20487;-86
2022/10/23 11:10:57;;;;;;;2.70;2.10;;;25.10;80.80;;;;;;5078803;28;20518;-87
2022/10/23 11:13:27;;;;;;;2.23;2.03;;;25.30;82.10;;;;;;5078813;28;20457;-87
2022/10/23 11:15:59;;;;;;;2.73;2.07;;;25.20;81.70;;;;;;5077594;28;20932;-85
2022/10/23 11:18:30;;;;;;;2.43;1.63;;;24.90;81.60;;;;;;5075327;28;20485;-87
2022/10/23 11:21:07;;;;;;;2.67;1.90;;;24.80;83.50;;;;;;5093106;28;20448;-87
2022/10/23 11:24:10;;;;;;;3.40;2.00;;;24.30;83.70;;;;;;5092746;28;20448;-87
2022/10/23 11:26:47;;;;;;;2.57;2.00;;;24.20;84.50;;;;;;5075214;28;20440;-87
2022/10/23 11:29:43;;;;;;;3.00;2.47;;;23.90;85.70;;;;;;5091549;28;20524;-87
2022/10/23 11:32:25;;;;;;;5.47;2.43;;;23.80;87.70;;;;;;5073533;28;20492;-87
2022/10/23 11:35:14;;;;;;;2.70;2.50;;;23.50;86.50;;;;;;5074464;28;20460;-87
2022/10/23 11:37:41;;;;;;;5.43;2.90;;;23.10;87.90;;;;;;5074763;28;20527;-87
2022/10/23 11:40:21;;;;;;;8.30;2.53;;;22.90;89.50;;;;;;5075051;28;20451;-87
2022/10/23 11:42:50;;;;;;;3.03;2.30;;;22.80;90.60;;;;;;5074393;28;20444;-87
2022/10/23 11:45:33;;;;;;;2.13;1.87;;;22.80;90.60;;;;;;5075043;28;20437;-87
2022/10/23 11:48:01;;;;;;;3.03;2.17;;;22.60;90.90;;;;;;5079690;28;20482;-88
2022/10/23 11:50:49;;;;;;;2.13;1.80;;;22.70;91.40;;;;;;5095191;28;20851;-87
2022/10/23 11:53:26;;;;;;;2.50;1.97;;;22.70;91.20;;;;;;5086964;28;20436;-87
2022/10/23 11:56:03;;;;;;;3.63;2.03;;;22.60;91.70;;;;;;5075886;28;20448;-87
2022/10/23 11:58:42;;;;;;;3.70;2.43;;;22.70;91.80;;;;;;5073979;28;20476;-87
2022/10/23 12:01:33;;;;;;;3.40;2.10;;;22.80;91.80;;;;;;5079200;28;20443;-87
2022/10/23 12:04:03;;;;;;;3.57;1.80;;;23.00;91.90;;;;;;5074391;28;20532;-87
2022/10/23 12:06:38;;;;;;;3.80;2.20;;;23.10;91.00;;;;;;5074420;28;20937;-87
2022/10/23 12:09:07;;;;;;;3.10;2.10;;;23.60;91.50;;;;;;5084913;28;20431;-86
2022/10/23 12:11:43;;;;;;;3.07;2.10;;;23.50;90.40;;;;;;5096719;28;20468;-87
2022/10/23 12:14:31;;;;;;;2.77;2.27;;;23.50;90.10;;;;;;5075223;28;20818;-86
2022/10/23 12:16:59;;;;;;;2.73;1.93;;;23.60;90.50;;;;;;5073632;28;20460;-87
2022/10/23 12:19:28;;;;;;;1.97;1.80;;;23.90;91.00;;;;;;5074840;28;20818;-86
2022/10/23 12:21:59;;;;;;;2.60;2.23;;;23.80;90.70;;;;;;5074924;28;20989;-87
2022/10/23 12:24:38;;;;;;;3.03;2.07;;;23.70;89.80;;;;;;5074405;28;20441;-87
2022/10/23 12:27:20;;;;;;;3.50;2.50;;;23.80;90.50;;;;;;5073396;28;20829;-87
2022/10/23 12:30:11;;;;;;;2.63;1.67;;;23.80;90.60;;;;;;5073803;28;20448;-87
2022/10/23 12:33:02;;;;;;;3.53;2.13;;;23.60;90.60;;;;;;5073820;28;20491;-86
2022/10/23 12:35:56;;;;;;;3.10;1.60;;;23.50;90.70;;;;;;5073536;28;20457;-87
2022/10/23 12:38:26;;;;;;;3.50;1.93;;;23.40;90.70;;;;;;5073595;28;20469;-87
2022/10/23 12:40:56;;;;;;;2.10;1.60;;;23.50;91.00;;;;;;5073343;28;20449;-87
2022/10/23 12:43:27;;;;;;;3.10;2.10;;;23.50;90.30;;;;;;5073241;28;20453;-87
2022/10/23 12:45:55;;;;;;;2.60;1.97;;;23.70;90.60;;;;;;5072088;28;20446;-87
2022/10/23 12:48:24;;;;;;;2.40;2.00;;;23.90;90.20;;;;;;5072919;28;20477;-87
2022/10/23 12:50:53;;;;;;;6.77;2.27;;;24.10;90.00;;;;;;5073077;28;20453;-87
2022/10/23 12:53:21;;;;;;;3.13;2.40;;;24.30;90.20;;;;;;5079647;28;20457;-87
2022/10/23 12:55:53;;;;;;;2.20;1.77;;;24.40;90.10;;;;;;5096620;28;20426;-87
2022/10/23 12:58:22;;;;;;;3.23;2.73;;;25.00;88.90;;;;;;5086354;28;20473;-87
2022/10/23 13:00:54;;;;;;;4.27;2.23;;;25.70;87.60;;;;;;5074057;28;20512;-86
2022/10/23 13:03:22;;;;;;;3.43;2.20;;;25.40;85.70;;;;;;5073800;28;20446;-87